Time;durP1;ratioP1;P1;durP2;ratioP2;P2;SDS_P1;SDS_P2;PMS_P1;PMS_P2;Temp;Humidity;BMP_temperature;BMP_pressure;BME280_temperature;BME280_humidity;BME280_pressure;Samples;Min_cycle;Max_cycle;Signal;HPM_P1;HPM_P2
2023/04/18 00:01:45;;;;;;;17.77;10.95;;;5.70;99.90;;;;;;5064037;28;20029;-65
2023/04/18 00:04:12;;;;;;;17.45;11.35;;;5.70;99.90;;;;;;5043964;28;20048;-65
2023/04/18 00:06:37;;;;;;;18.10;11.00;;;5.60;99.90;;;;;;5050808;28;20037;-65
2023/04/18 00:09:03;;;;;;;17.67;11.07;;;5.60;99.90;;;;;;5056372;28;20372;-65
2023/04/18 00:11:29;;;;;;;18.15;11.38;;;5.60;99.90;;;;;;5053436;28;20037;-65
2023/04/18 00:13:56;;;;;;;16.23;10.90;;;5.50;99.90;;;;;;5048496;28;20098;-66
2023/04/18 00:16:22;;;;;;;15.23;10.15;;;5.50;99.90;;;;;;5042687;28;20416;-65
2023/04/18 00:18:48;;;;;;;17.40;11.18;;;5.50;99.90;;;;;;5045075;28;20036;-65
2023/04/18 00:21:15;;;;;;;16.48;10.80;;;5.50;99.90;;;;;;5049828;28;20091;-65
2023/04/18 00:23:41;;;;;;;18.75;11.25;;;5.40;99.90;;;;;;5047171;28;20060;-65
2023/04/18 00:26:06;;;;;;;20.85;12.00;;;5.30;99.90;;;;;;5041532;28;20033;-65
2023/04/18 00:28:32;;;;;;;18.70;11.00;;;5.30;99.90;;;;;;5042231;28;20127;-65
2023/04/18 00:30:57;;;;;;;17.73;11.38;;;5.30;99.90;;;;;;5047389;28;20068;-65
2023/04/18 00:33:23;;;;;;;19.77;11.40;;;5.30;99.90;;;;;;5044041;28;20041;-65
2023/04/18 00:35:48;;;;;;;18.77;11.88;;;5.30;99.90;;;;;;5045692;28;20093;-65
2023/04/18 00:38:14;;;;;;;20.90;12.02;;;5.30;99.90;;;;;;5051595;28;20121;-65
2023/04/18 00:40:39;;;;;;;19.15;11.88;;;5.30;99.90;;;;;;5053849;28;20044;-65
2023/04/18 00:43:08;;;;;;;18.85;11.85;;;5.20;99.90;;;;;;5042439;28;20049;-65
2023/04/18 00:45:34;;;;;;;19.83;11.32;;;5.20;99.90;;;;;;5047866;28;20453;-65
2023/04/18 00:48:00;;;;;;;17.88;11.02;;;5.10;99.90;;;;;;5041354;28;20116;-65
2023/04/18 00:50:26;;;;;;;17.73;11.43;;;5.00;99.90;;;;;;5045684;28;20396;-65
2023/04/18 00:52:52;;;;;;;18.25;11.80;;;4.90;99.90;;;;;;5049582;28;20133;-65
2023/04/18 00:55:18;;;;;;;19.20;12.02;;;4.90;99.90;;;;;;5056786;28;20044;-66
2023/04/18 00:57:44;;;;;;;18.92;11.70;;;4.80;99.90;;;;;;5050750;28;20130;-65
2023/04/18 01:00:11;;;;;;;18.42;11.65;;;4.80;99.90;;;;;;5048892;28;20032;-65
2023/04/18 01:02:38;;;;;;;18.20;12.07;;;4.70;99.90;;;;;;5046297;28;20167;-65
2023/04/18 01:05:05;;;;;;;20.80;12.50;;;4.60;99.90;;;;;;5046014;28;20033;-64
2023/04/18 01:07:32;;;;;;;18.70;12.68;;;4.60;99.90;;;;;;5046427;28;20090;-66
2023/04/18 01:09:58;;;;;;;19.02;12.50;;;4.60;99.90;;;;;;5046209;28;20044;-66
2023/04/18 01:12:24;;;;;;;20.33;12.63;;;4.60;99.90;;;;;;5049099;28;20037;-65
2023/04/18 01:14:49;;;;;;;20.33;12.60;;;4.70;99.90;;;;;;5053240;28;20044;-65
2023/04/18 01:17:15;;;;;;;19.35;11.93;;;4.70;99.90;;;;;;5042753;28;20049;-65
2023/04/18 01:19:40;;;;;;;21.15;12.63;;;4.70;99.90;;;;;;5062290;28;20072;-65
2023/04/18 01:22:06;;;;;;;19.90;12.07;;;4.70;99.90;;;;;;5049372;28;20033;-65
2023/04/18 01:24:31;;;;;;;20.85;12.40;;;4.70;99.90;;;;;;5050569;28;20045;-66
2023/04/18 01:26:57;;;;;;;19.23;12.20;;;4.70;99.90;;;;;;5057798;28;20488;-65
2023/04/18 01:29:24;;;;;;;18.92;12.30;;;4.70;99.90;;;;;;5048014;28;20090;-65
2023/04/18 01:31:49;;;;;;;22.60;13.25;;;4.70;99.90;;;;;;5047625;28;20044;-66
2023/04/18 01:34:16;;;;;;;22.25;13.20;;;4.80;99.90;;;;;;5049462;28;20524;-65
2023/04/18 01:36:43;;;;;;;21.73;12.65;;;4.80;99.90;;;;;;5044340;28;20052;-65
2023/04/18 01:39:08;;;;;;;18.20;12.48;;;4.80;99.90;;;;;;5050829;28;20036;-65
2023/04/18 01:41:34;;;;;;;20.38;12.40;;;4.80;99.90;;;;;;5048597;28;20047;-65
2023/04/18 01:44:00;;;;;;;21.50;12.20;;;4.80;99.90;;;;;;5057427;28;20128;-65
2023/04/18 01:46:26;;;;;;;20.45;12.15;;;4.80;99.90;;;;;;5053627;28;20040;-66
2023/04/18 01:48:52;;;;;;;19.65;12.52;;;4.80;99.90;;;;;;5044651;28;20037;-65
2023/04/18 01:51:17;;;;;;;20.90;12.60;;;4.80;99.90;;;;;;5049148;28;20040;-66
2023/04/18 01:53:43;;;;;;;22.20;12.90;;;4.90;99.90;;;;;;5041105;28;20042;-66
2023/04/18 01:56:09;;;;;;;22.48;13.30;;;4.90;99.90;;;;;;5064364;28;20037;-66
2023/04/18 01:58:35;;;;;;;19.83;12.75;;;4.90;99.90;;;;;;5048430;28;20045;-65
2023/04/18 02:01:01;;;;;;;18.67;12.23;;;4.90;99.90;;;;;;5044945;28;20488;-66
2023/04/18 02:03:26;;;;;;;19.48;12.55;;;4.80;99.90;;;;;;5050708;28;20044;-65
2023/04/18 02:05:52;;;;;;;25.38;12.50;;;4.80;99.90;;;;;;5048357;28;20030;-66
2023/04/18 02:08:17;;;;;;;22.85;13.07;;;4.80;99.90;;;;;;5051069;28;20032;-65
2023/04/18 02:10:43;;;;;;;19.17;12.40;;;4.70;99.90;;;;;;5046655;28;20637;-66
2023/04/18 02:13:08;;;;;;;19.35;11.95;;;4.70;99.90;;;;;;5052867;28;20029;-65
2023/04/18 02:15:34;;;;;;;19.90;12.05;;;4.80;99.90;;;;;;5050067;28;20087;-66
2023/04/18 02:18:00;;;;;;;19.83;12.32;;;4.70;99.90;;;;;;5047685;28;20102;-66
2023/04/18 02:20:27;;;;;;;18.40;11.93;;;4.80;99.90;;;;;;5051868;28;20079;-66
2023/04/18 02:22:53;;;;;;;21.75;12.07;;;4.80;99.90;;;;;;5050876;28;20045;-66
2023/04/18 02:25:22;;;;;;;22.40;12.82;;;4.80;99.90;;;;;;5049530;28;20041;-66
2023/04/18 02:27:48;;;;;;;22.55;13.48;;;4.90;99.90;;;;;;5042906;28;20438;-66
2023/04/18 02:30:13;;;;;;;20.20;13.57;;;4.90;99.90;;;;;;5062877;28;20063;-66
2023/04/18 02:32:39;;;;;;;21.40;12.77;;;4.90;99.90;;;;;;5051820;28;20724;-65
2023/04/18 02:35:05;;;;;;;20.38;12.32;;;5.00;99.90;;;;;;5052515;28;20044;-66
2023/04/18 02:37:30;;;;;;;21.15;12.95;;;5.00;99.90;;;;;;5049211;28;20040;-66
2023/04/18 02:39:56;;;;;;;17.77;12.13;;;5.10;99.90;;;;;;5052918;28;20308;-65
2023/04/18 02:42:21;;;;;;;19.55;13.07;;;5.10;99.90;;;;;;5048121;28;20091;-66
2023/04/18 02:44:47;;;;;;;21.70;12.27;;;5.20;99.90;;;;;;5048821;28;20044;-67
2023/04/18 02:47:12;;;;;;;23.25;12.73;;;5.20;99.90;;;;;;5044289;28;20048;-66
2023/04/18 02:49:38;;;;;;;19.13;12.30;;;5.20;99.90;;;;;;5045296;28;20380;-66
2023/04/18 02:52:03;;;;;;;20.45;13.15;;;5.30;99.90;;;;;;5050966;28;20036;-66
2023/04/18 02:54:29;;;;;;;20.83;12.52;;;5.30;99.90;;;;;;5051293;28;20052;-66
2023/04/18 02:56:55;;;;;;;22.10;12.07;;;5.30;99.90;;;;;;5057390;28;20073;-66
2023/04/18 02:59:21;;;;;;;20.02;12.35;;;5.40;99.90;;;;;;5049422;28;20135;-67
2023/04/18 03:01:47;;;;;;;21.83;12.70;;;5.40;99.90;;;;;;5049370;28;20033;-66
2023/04/18 03:04:12;;;;;;;20.83;12.70;;;5.50;99.90;;;;;;5052178;28;20043;-66
2023/04/18 03:06:38;;;;;;;23.20;13.32;;;5.50;99.90;;;;;;5055694;28;20123;-66
2023/04/18 03:09:04;;;;;;;20.35;13.32;;;5.50;99.90;;;;;;5046262;28;20434;-66
2023/04/18 03:11:29;;;;;;;23.77;12.82;;;5.60;99.90;;;;;;5052857;28;20778;-65
2023/04/18 03:13:55;;;;;;;22.25;13.30;;;5.50;99.90;;;;;;5050706;28;20045;-65
2023/04/18 03:16:20;;;;;;;21.55;13.32;;;5.60;99.90;;;;;;5047374;28;20041;-65
2023/04/18 03:18:46;;;;;;;20.80;13.50;;;5.70;99.90;;;;;;5049194;28;20057;-66
2023/04/18 03:21:12;;;;;;;21.08;13.55;;;5.60;99.90;;;;;;5047742;28;20033;-66
2023/04/18 03:23:38;;;;;;;22.15;13.88;;;5.70;99.90;;;;;;5048308;28;20056;-66
2023/04/18 03:26:06;;;;;;;22.65;13.40;;;5.70;99.90;;;;;;5046608;28;20040;-65
2023/04/18 03:28:31;;;;;;;20.88;13.10;;;5.70;99.90;;;;;;5049458;28;20503;-66
2023/04/18 03:30:58;;;;;;;25.10;13.20;;;5.70;99.90;;;;;;5040227;28;20071;-65
2023/04/18 03:33:23;;;;;;;20.25;13.07;;;5.70;99.90;;;;;;5046459;28;20395;-65
2023/04/18 03:35:49;;;;;;;20.80;13.35;;;5.70;99.90;;;;;;5047506;28;20044;-66
2023/04/18 03:38:14;;;;;;;23.08;13.88;;;5.70;99.90;;;;;;5048055;28;20040;-65
2023/04/18 03:40:42;;;;;;;21.08;13.23;;;5.70;99.90;;;;;;5047859;28;20506;-65
2023/04/18 03:43:08;;;;;;;23.88;14.50;;;5.70;99.90;;;;;;5052430;28;20091;-66
2023/04/18 03:45:34;;;;;;;21.98;13.65;;;5.70;99.90;;;;;;5048664;28;20065;-65
2023/04/18 03:47:59;;;;;;;24.02;14.07;;;5.60;99.90;;;;;;5049615;28;20041;-66
2023/04/18 03:50:25;;;;;;;23.73;14.02;;;5.60;99.90;;;;;;5041566;28;20487;-67
2023/04/18 03:52:51;;;;;;;22.25;14.02;;;5.60;99.90;;;;;;5043336;28;20094;-65
2023/04/18 03:55:18;;;;;;;23.08;13.98;;;5.50;99.90;;;;;;5047838;28;20541;-66
2023/04/18 03:57:44;;;;;;;22.35;13.50;;;5.60;99.90;;;;;;5049429;28;20052;-67
2023/04/18 04:00:11;;;;;;;22.80;13.38;;;5.50;99.90;;;;;;5048614;28;20041;-66
2023/04/18 04:02:37;;;;;;;23.15;14.00;;;5.50;99.90;;;;;;5031101;28;20487;-66
2023/04/18 04:05:03;;;;;;;21.92;13.73;;;5.50;99.90;;;;;;5038736;28;20044;-66
2023/04/18 04:07:30;;;;;;;22.85;13.80;;;5.60;99.90;;;;;;5042977;28;20427;-66
2023/04/18 04:09:57;;;;;;;21.85;13.35;;;5.50;99.90;;;;;;5040788;28;20048;-65
2023/04/18 04:12:23;;;;;;;22.40;13.45;;;5.50;99.90;;;;;;5040689;28;20049;-66
2023/04/18 04:14:49;;;;;;;23.45;12.63;;;5.50;99.90;;;;;;5047339;28;20123;-65
2023/04/18 04:17:14;;;;;;;22.98;13.70;;;5.50;99.90;;;;;;5041452;28;20036;-65
2023/04/18 04:19:40;;;;;;;20.85;13.13;;;5.60;99.90;;;;;;5029388;28;20131;-66
2023/04/18 04:22:05;;;;;;;20.80;13.23;;;5.60;99.90;;;;;;5046209;28;20037;-65
2023/04/18 04:24:32;;;;;;;20.65;12.75;;;5.70;99.90;;;;;;5043896;28;20048;-66
2023/04/18 04:26:58;;;;;;;19.83;12.73;;;5.70;99.90;;;;;;5042598;28;20120;-65
2023/04/18 04:29:25;;;;;;;22.83;13.45;;;5.80;99.90;;;;;;5045452;28;20051;-66
2023/04/18 04:31:51;;;;;;;22.13;13.00;;;5.80;99.90;;;;;;5041312;28;20377;-67
2023/04/18 04:34:16;;;;;;;22.15;12.90;;;5.80;99.90;;;;;;5041809;28;20036;-66
2023/04/18 04:36:43;;;;;;;22.05;12.35;;;5.80;99.90;;;;;;5042341;28;20045;-65
2023/04/18 04:39:10;;;;;;;22.05;12.32;;;5.90;99.90;;;;;;5040415;28;21173;-65
2023/04/18 04:41:38;;;;;;;19.83;12.80;;;5.90;99.90;;;;;;5047061;28;20045;-67
2023/04/18 04:44:03;;;;;;;23.30;13.40;;;5.90;99.90;;;;;;5045876;28;20232;-66
2023/04/18 04:46:29;;;;;;;22.85;12.55;;;5.90;99.90;;;;;;5048185;28;20045;-66
2023/04/18 04:48:56;;;;;;;21.08;12.73;;;5.90;99.90;;;;;;5045223;28;20118;-65
2023/04/18 04:51:21;;;;;;;22.13;12.82;;;5.90;99.90;;;;;;5042834;28;20342;-65
2023/04/18 04:53:47;;;;;;;21.15;12.52;;;5.90;99.90;;;;;;5044393;28;20044;-65
2023/04/18 04:56:12;;;;;;;21.55;13.10;;;6.00;99.90;;;;;;5043586;28;20072;-66
2023/04/18 04:58:38;;;;;;;20.48;12.85;;;6.00;99.90;;;;;;5044835;28;20132;-66
2023/04/18 05:01:06;;;;;;;22.23;12.80;;;6.00;99.90;;;;;;5049955;28;20037;-65
2023/04/18 05:03:32;;;;;;;22.75;13.57;;;6.10;99.90;;;;;;5052735;28;20067;-65
2023/04/18 05:05:58;;;;;;;22.17;13.02;;;6.10;99.90;;;;;;5053503;28;20045;-65
2023/04/18 05:08:24;;;;;;;22.17;13.60;;;6.20;99.90;;;;;;5060621;28;20403;-65
2023/04/18 05:10:49;;;;;;;21.73;13.13;;;6.20;99.90;;;;;;5052284;28;20083;-66
2023/04/18 05:13:15;;;;;;;20.40;13.70;;;6.30;99.90;;;;;;5064087;28;20072;-65
2023/04/18 05:15:41;;;;;;;20.88;13.45;;;6.40;99.90;;;;;;5045704;28;20056;-66
2023/04/18 05:18:06;;;;;;;22.60;13.32;;;6.40;99.90;;;;;;5048203;28;20076;-65
2023/04/18 05:20:32;;;;;;;20.67;12.88;;;6.50;99.90;;;;;;5043702;28;20045;-65
2023/04/18 05:23:00;;;;;;;23.27;13.40;;;6.50;99.90;;;;;;5046534;28;20036;-65
2023/04/18 05:25:28;;;;;;;23.35;12.98;;;6.60;99.90;;;;;;5063912;28;20049;-66
2023/04/18 05:27:53;;;;;;;24.95;14.18;;;6.60;99.90;;;;;;5040229;28;20040;-67
2023/04/18 05:30:19;;;;;;;23.08;13.80;;;6.60;99.90;;;;;;5044956;28;20043;-66
2023/04/18 05:32:46;;;;;;;22.58;13.38;;;6.70;99.90;;;;;;5059802;28;20063;-65
2023/04/18 05:35:12;;;;;;;23.17;13.38;;;6.70;99.90;;;;;;5046050;28;20032;-66
2023/04/18 05:37:38;;;;;;;23.40;13.32;;;6.70;99.90;;;;;;5041968;28;20045;-67
2023/04/18 05:40:04;;;;;;;23.83;13.77;;;6.70;99.90;;;;;;5044068;28;20044;-66
2023/04/18 05:42:29;;;;;;;21.65;13.75;;;6.70;99.90;;;;;;5043802;28;20076;-65
2023/04/18 05:44:55;;;;;;;23.73;14.07;;;6.70;99.90;;;;;;5045973;28;20095;-66
2023/04/18 05:47:22;;;;;;;22.70;13.70;;;6.70;99.90;;;;;;5044629;28;20177;-66
2023/04/18 05:49:48;;;;;;;22.85;13.50;;;6.70;99.90;;;;;;5039818;28;20041;-65
2023/04/18 05:52:14;;;;;;;24.45;13.35;;;6.70;99.90;;;;;;5060625;28;20114;-66
2023/04/18 05:54:40;;;;;;;22.13;13.40;;;6.70;99.90;;;;;;5045639;28;20040;-70
2023/04/18 05:57:05;;;;;;;23.60;13.65;;;6.70;99.90;;;;;;5046394;28;20045;-71
2023/04/18 05:59:31;;;;;;;20.90;12.93;;;6.80;99.90;;;;;;5048792;28;20116;-69
2023/04/18 06:01:56;;;;;;;22.90;14.00;;;6.70;99.90;;;;;;5059667;28;20045;-68
2023/04/18 06:04:22;;;;;;;24.42;13.55;;;6.70;99.90;;;;;;5047323;28;20496;-71
2023/04/18 06:06:47;;;;;;;23.17;14.05;;;6.80;99.90;;;;;;5047992;28;20062;-68
2023/04/18 06:09:13;;;;;;;21.85;13.05;;;6.80;99.90;;;;;;5063804;28;20048;-70
2023/04/18 06:11:38;;;;;;;22.95;13.70;;;6.80;99.90;;;;;;5063442;28;20036;-71
2023/04/18 06:14:04;;;;;;;22.15;13.05;;;6.80;99.90;;;;;;5047278;28;20475;-69
2023/04/18 06:16:29;;;;;;;21.77;13.02;;;6.90;99.90;;;;;;5063248;28;20476;-69
2023/04/18 06:18:56;;;;;;;22.15;12.90;;;6.90;99.90;;;;;;5047088;28;20435;-69
2023/04/18 06:21:22;;;;;;;21.08;12.63;;;6.90;99.90;;;;;;5045718;28;20053;-68
2023/04/18 06:23:47;;;;;;;20.92;12.55;;;6.90;99.90;;;;;;5046278;28;20392;-67
2023/04/18 06:26:13;;;;;;;20.75;13.02;;;6.90;99.90;;;;;;5049833;28;20400;-72
2023/04/18 06:28:39;;;;;;;23.73;13.77;;;7.00;99.90;;;;;;5046681;28;20037;-69
2023/04/18 06:31:04;;;;;;;22.73;12.77;;;7.10;99.90;;;;;;5049593;28;20431;-68
2023/04/18 06:33:30;;;;;;;22.75;12.50;;;7.10;99.90;;;;;;5046929;28;20047;-69
2023/04/18 06:35:56;;;;;;;19.50;12.45;;;7.20;99.90;;;;;;5033238;28;20044;-68
2023/04/18 06:38:21;;;;;;;22.95;12.93;;;7.30;99.90;;;;;;5048175;28;20205;-70
2023/04/18 06:40:47;;;;;;;21.35;13.43;;;7.30;99.90;;;;;;5050932;28;20171;-69
2023/04/18 06:43:12;;;;;;;21.63;13.00;;;7.40;99.90;;;;;;5051365;28;20041;-69
2023/04/18 06:45:38;;;;;;;21.23;11.65;;;7.50;99.90;;;;;;5048662;28;20500;-70
2023/04/18 06:48:04;;;;;;;21.10;12.73;;;7.60;99.90;;;;;;5049890;28;20384;-70
2023/04/18 06:50:29;;;;;;;20.15;13.02;;;7.60;99.90;;;;;;5046216;28;20057;-70
2023/04/18 06:52:55;;;;;;;21.75;12.63;;;7.70;99.90;;;;;;5048099;28;20036;-67
2023/04/18 06:55:21;;;;;;;21.02;12.20;;;7.80;99.90;;;;;;5049199;28;20044;-67
2023/04/18 06:57:46;;;;;;;19.40;12.77;;;7.80;99.90;;;;;;5046449;28;20607;-70
2023/04/18 07:00:12;;;;;;;20.65;12.35;;;7.90;99.90;;;;;;5045513;28;20052;-67
2023/04/18 07:02:38;;;;;;;22.30;14.15;;;8.00;99.90;;;;;;5047461;28;20242;-68
2023/04/18 07:05:05;;;;;;;22.75;14.10;;;8.00;99.90;;;;;;5048063;28;20041;-69
2023/04/18 07:07:32;;;;;;;20.40;13.10;;;8.10;99.90;;;;;;5047163;28;20496;-69
2023/04/18 07:09:58;;;;;;;18.88;13.25;;;8.20;99.90;;;;;;5047287;28;20036;-68
2023/04/18 07:12:23;;;;;;;19.80;13.07;;;8.20;99.90;;;;;;5046966;28;20488;-68
2023/04/18 07:14:51;;;;;;;20.13;13.35;;;8.40;99.90;;;;;;5043421;28;20041;-68
2023/04/18 07:17:17;;;;;;;22.48;12.98;;;8.60;99.90;;;;;;5042349;28;20037;-69
2023/04/18 07:19:42;;;;;;;22.42;13.82;;;8.90;99.90;;;;;;5036789;28;20158;-70
2023/04/18 07:22:08;;;;;;;20.92;12.63;;;9.20;99.90;;;;;;5043497;28;20048;-70
2023/04/18 07:24:34;;;;;;;20.55;12.88;;;9.30;99.90;;;;;;5043115;28;20041;-69
2023/04/18 07:27:00;;;;;;;18.65;12.27;;;9.30;99.90;;;;;;5045335;28;20045;-70
2023/04/18 07:29:26;;;;;;;20.17;12.68;;;9.30;99.90;;;;;;5043332;28;22141;-68
2023/04/18 07:31:51;;;;;;;18.08;12.00;;;9.30;99.90;;;;;;5047352;28;20037;-69
2023/04/18 07:34:17;;;;;;;18.02;11.25;;;9.30;99.90;;;;;;5047098;28;20471;-69
2023/04/18 07:36:42;;;;;;;18.23;11.18;;;9.30;99.90;;;;;;5053020;28;20246;-68
2023/04/18 07:39:08;;;;;;;17.48;11.98;;;9.30;99.90;;;;;;5050034;28;20500;-66
2023/04/18 07:41:34;;;;;;;19.27;11.15;;;9.30;99.90;;;;;;5052471;28;20492;-67
2023/04/18 07:44:00;;;;;;;17.63;11.63;;;9.30;99.90;;;;;;5052480;28;20048;-69
2023/04/18 07:46:26;;;;;;;17.35;11.32;;;9.40;99.90;;;;;;5046239;28;20045;-67
2023/04/18 07:48:52;;;;;;;16.35;11.40;;;9.40;99.90;;;;;;5045513;28;20064;-68
2023/04/18 07:51:19;;;;;;;16.38;9.60;;;9.50;99.90;;;;;;5039272;28;20045;-68
2023/04/18 07:53:44;;;;;;;16.27;11.13;;;9.50;99.90;;;;;;5054325;28;20040;-67
2023/04/18 07:56:13;;;;;;;17.83;11.55;;;9.60;99.90;;;;;;5054570;28;20044;-67
2023/04/18 07:58:39;;;;;;;16.35;10.45;;;9.70;99.90;;;;;;5058503;28;20041;-69
2023/04/18 08:01:06;;;;;;;14.43;10.05;;;9.70;99.90;;;;;;5050309;28;20052;-67
2023/04/18 08:03:35;;;;;;;14.60;10.27;;;9.70;99.90;;;;;;5058508;28;20047;-68
2023/04/18 08:06:01;;;;;;;16.98;9.93;;;9.70;99.90;;;;;;5051795;28;20045;-70
2023/04/18 08:08:27;;;;;;;14.48;9.85;;;9.80;99.90;;;;;;5053467;28;20132;-66
2023/04/18 08:10:52;;;;;;;14.77;9.40;;;9.80;99.90;;;;;;5051270;28;20044;-66
2023/04/18 08:13:18;;;;;;;15.82;10.00;;;9.80;99.90;;;;;;5043213;28;20040;-68
2023/04/18 08:15:45;;;;;;;15.52;10.57;;;9.80;99.90;;;;;;5050404;28;20088;-67
2023/04/18 08:18:10;;;;;;;14.68;10.02;;;9.90;99.90;;;;;;5054808;28;20044;-66
2023/04/18 08:20:37;;;;;;;14.40;9.45;;;10.00;99.90;;;;;;5070840;28;20055;-70
2023/04/18 08:23:03;;;;;;;14.98;10.43;;;10.00;99.90;;;;;;5062775;28;20040;-69
2023/04/18 08:25:28;;;;;;;15.55;9.75;;;10.00;99.90;;;;;;5063112;28;20365;-67
2023/04/18 08:27:54;;;;;;;14.13;10.15;;;10.10;99.90;;;;;;5050965;28;20040;-67
2023/04/18 08:30:20;;;;;;;14.63;9.80;;;10.20;99.90;;;;;;5069358;28;20033;-68
2023/04/18 08:32:45;;;;;;;15.30;9.93;;;10.30;99.90;;;;;;5063056;28;20049;-65
2023/04/18 08:35:11;;;;;;;15.38;9.52;;;10.30;99.90;;;;;;5046614;28;20040;-69
2023/04/18 08:37:37;;;;;;;14.18;10.68;;;10.20;99.90;;;;;;5052670;28;20503;-67
2023/04/18 08:40:04;;;;;;;16.75;10.02;;;10.20;99.90;;;;;;5055514;28;20511;-66
2023/04/18 08:42:29;;;;;;;14.90;10.18;;;10.30;99.90;;;;;;5050339;28;20102;-66
2023/04/18 08:44:58;;;;;;;15.05;9.77;;;10.50;99.90;;;;;;5048004;28;20046;-68
2023/04/18 08:47:24;;;;;;;16.48;9.88;;;10.50;99.90;;;;;;5035550;28;20044;-67
2023/04/18 08:49:51;;;;;;;16.95;11.32;;;10.40;99.90;;;;;;5068987;28;20041;-66
2023/04/18 08:52:16;;;;;;;16.25;10.95;;;10.30;99.90;;;;;;5070745;28;20055;-66
2023/04/18 08:54:44;;;;;;;13.63;10.43;;;10.20;99.90;;;;;;5058260;28;20480;-66
2023/04/18 08:57:15;;;;;;;14.73;10.70;;;10.10;99.90;;;;;;5033545;28;20498;-66
2023/04/18 08:59:44;;;;;;;16.25;10.82;;;10.00;99.90;;;;;;5047862;28;20101;-66
2023/04/18 09:02:10;;;;;;;15.48;10.88;;;10.00;99.90;;;;;;5050579;28;20045;-65
2023/04/18 09:04:40;;;;;;;16.08;10.95;;;9.90;99.90;;;;;;5049560;28;20056;-68
2023/04/18 09:07:08;;;;;;;16.58;11.07;;;9.90;99.90;;;;;;5052029;28;20033;-67
2023/04/18 09:09:51;;;;;;;18.90;11.73;;;9.90;99.90;;;;;;5051763;28;20048;-67
2023/04/18 09:12:21;;;;;;;;;;;9.90;99.90;;;;;;5062037;28;20052;-68
2023/04/18 09:14:49;;;;;;;15.40;10.48;;;9.90;99.90;;;;;;5068024;28;19920;-65
2023/04/18 09:17:33;;;;;;;14.90;10.38;;;9.90;99.90;;;;;;5048618;28;20045;-66
2023/04/18 09:20:09;;;;;;;15.35;10.20;;;10.00;99.90;;;;;;5063476;28;20033;-67
2023/04/18 09:22:49;;;;;;;15.77;9.95;;;10.00;99.90;;;;;;5047305;28;20105;-65
2023/04/18 09:25:27;;;;;;;17.10;11.10;;;10.10;99.90;;;;;;5038546;28;20047;-70
2023/04/18 09:27:54;;;;;;;14.25;10.07;;;10.20;99.90;;;;;;5056569;28;20503;-67
2023/04/18 09:30:30;;;;;;;15.43;11.27;;;10.50;99.90;;;;;;5052053;28;20037;-67
2023/04/18 09:33:01;;;;;;;18.23;11.65;;;10.80;99.90;;;;;;5048653;28;20056;-68
2023/04/18 09:35:26;;;;;;;18.55;11.63;;;11.00;99.90;;;;;;5043129;28;20409;-65
2023/04/18 09:37:52;;;;;;;18.40;11.30;;;11.10;99.90;;;;;;5048051;28;20043;-67
2023/04/18 09:40:18;;;;;;;21.63;11.90;;;11.30;99.90;;;;;;5053172;28;20045;-67
2023/04/18 09:42:45;;;;;;;17.05;11.90;;;11.40;99.90;;;;;;5051770;28;20049;-67
2023/04/18 09:45:14;;;;;;;20.70;12.57;;;11.60;99.90;;;;;;5050807;28;20045;-67
2023/04/18 09:47:39;;;;;;;18.65;12.15;;;11.90;99.90;;;;;;5048076;28;20040;-66
2023/04/18 09:50:07;;;;;;;17.90;12.80;;;12.00;99.90;;;;;;5048671;28;20048;-66
2023/04/18 09:52:35;;;;;;;18.63;12.48;;;12.00;99.90;;;;;;5055569;28;20033;-68
2023/04/18 09:55:06;;;;;;;17.67;12.73;;;12.00;99.90;;;;;;5053127;28;20090;-68
2023/04/18 09:57:33;;;;;;;18.05;11.52;;;12.10;99.90;;;;;;5053075;28;20073;-66
2023/04/18 10:00:25;;;;;;;18.25;12.63;;;12.20;99.90;;;;;;5053153;28;20037;-68
2023/04/18 10:02:56;;;;;;;19.55;12.82;;;12.30;99.90;;;;;;5054699;28;20036;-67
2023/04/18 10:05:30;;;;;;;19.88;13.07;;;12.20;99.90;;;;;;5050875;28;20124;-64
2023/04/18 10:07:56;;;;;;;18.95;12.90;;;12.20;99.90;;;;;;5045812;28;20541;-65
2023/04/18 10:10:22;;;;;;;18.83;13.07;;;12.20;99.90;;;;;;5056296;28;20041;-68
2023/04/18 10:12:50;;;;;;;22.83;14.02;;;11.90;99.90;;;;;;5049056;28;20037;-70
2023/04/18 10:15:17;;;;;;;19.90;12.95;;;11.70;99.90;;;;;;5067160;28;20056;-71
2023/04/18 10:17:53;;;;;;;20.98;13.82;;;11.70;99.90;;;;;;5052026;28;20080;-68
2023/04/18 10:20:22;;;;;;;19.33;13.60;;;11.90;99.90;;;;;;5057890;28;20049;-68
2023/04/18 10:22:49;;;;;;;19.60;11.88;;;12.10;99.90;;;;;;5052332;28;20479;-70
2023/04/18 10:25:33;;;;;;;19.25;12.43;;;12.10;99.90;;;;;;5067604;28;20123;-69
2023/04/18 10:28:04;;;;;;;20.73;13.45;;;12.10;99.90;;;;;;5050087;28;20045;-67
2023/04/18 10:30:39;;;;;;;17.15;12.27;;;12.40;99.90;;;;;;5054391;28;20496;-65
2023/04/18 10:33:29;;;;;;;19.02;11.73;;;12.50;99.90;;;;;;5052645;28;20058;-67
2023/04/18 10:36:19;;;;;;;19.90;12.75;;;12.50;99.90;;;;;;5035567;28;20522;-69
2023/04/18 10:38:53;;;;;;;18.23;12.18;;;12.50;99.90;;;;;;5043213;28;20105;-70
2023/04/18 10:41:27;;;;;;;21.13;11.30;;;12.50;99.90;;;;;;5058343;28;20102;-69
2023/04/18 10:44:05;;;;;;;18.25;10.80;;;12.60;99.90;;;;;;5056182;28;20040;-66
2023/04/18 10:46:31;;;;;;;15.55;10.27;;;12.40;99.90;;;;;;5070707;28;20052;-74
2023/04/18 10:49:26;;;;;;;15.98;9.20;;;12.40;99.90;;;;;;5068839;28;20036;-68
2023/04/18 10:51:54;;;;;;;17.40;11.30;;;12.50;99.90;;;;;;5045260;28;20033;-66
2023/04/18 10:54:37;;;;;;;15.00;10.48;;;12.70;99.90;;;;;;5060676;28;20122;-69
2023/04/18 10:57:04;;;;;;;18.70;10.90;;;12.80;99.90;;;;;;5054539;28;20033;-66
2023/04/18 10:59:31;;;;;;;16.10;11.15;;;12.90;99.90;;;;;;5049651;28;20041;-68
2023/04/18 11:02:25;;;;;;;18.15;12.15;;;12.80;99.90;;;;;;5050843;28;20099;-67
2023/04/18 11:04:53;;;;;;;17.15;12.13;;;12.80;99.90;;;;;;5067308;28;20043;-69
2023/04/18 11:07:30;;;;;;;19.42;12.77;;;12.60;99.90;;;;;;5054389;28;20040;-68
2023/04/18 11:09:56;;;;;;;18.35;12.50;;;12.60;99.90;;;;;;5050011;28;20476;-67
2023/04/18 11:12:22;;;;;;;17.52;12.52;;;12.70;99.90;;;;;;5051234;28;20164;-68
2023/04/18 11:14:50;;;;;;;19.98;13.40;;;12.70;99.90;;;;;;5064032;28;20044;-68
2023/04/18 11:17:34;;;;;;;18.52;12.68;;;12.80;99.90;;;;;;5072279;28;20407;-69
2023/04/18 11:20:07;;;;;;;18.65;12.73;;;13.00;99.90;;;;;;5052021;28;20134;-66
2023/04/18 11:22:51;;;;;;;19.13;12.27;;;13.40;99.90;;;;;;5050327;28;20071;-71
2023/04/18 11:25:21;;;;;;;18.92;13.15;;;13.70;99.90;;;;;;5054648;28;20045;-68
2023/04/18 11:27:48;;;;;;;16.85;12.52;;;13.80;99.90;;;;;;5051377;28;20136;-65
2023/04/18 11:30:15;;;;;;;17.02;11.98;;;14.00;99.90;;;;;;5057738;28;20047;-70
2023/04/18 11:32:40;;;;;;;18.40;12.50;;;14.10;99.90;;;;;;5050836;28;20048;-70
2023/04/18 11:35:10;;;;;;;15.05;11.35;;;14.30;99.90;;;;;;5065417;28;20491;-68
2023/04/18 11:37:39;;;;;;;18.23;12.38;;;14.40;99.90;;;;;;5071519;28;20044;-71
2023/04/18 11:40:07;;;;;;;18.00;12.48;;;14.50;99.90;;;;;;5058064;28;20174;-70
2023/04/18 11:42:34;;;;;;;19.08;13.80;;;14.70;99.90;;;;;;5050772;28;20072;-71
2023/04/18 11:45:00;;;;;;;20.45;13.55;;;14.90;99.90;;;;;;5058218;28;20041;-70
2023/04/18 11:47:32;;;;;;;14.73;11.77;;;15.10;99.90;;;;;;5050214;28;20116;-67
2023/04/18 11:49:59;;;;;;;14.98;11.40;;;15.30;99.90;;;;;;5049562;28;20041;-69
2023/04/18 11:52:26;;;;;;;14.60;11.07;;;15.30;99.90;;;;;;5049984;28;20132;-70
2023/04/18 11:54:52;;;;;;;15.88;10.95;;;15.20;99.90;;;;;;5050765;28;20480;-72
2023/04/18 11:57:22;;;;;;;17.92;12.02;;;15.20;99.90;;;;;;5049015;28;20051;-71
2023/04/18 11:59:53;;;;;;;16.70;10.38;;;15.30;99.90;;;;;;5065225;28;20041;-69
2023/04/18 12:02:19;;;;;;;14.38;11.02;;;15.10;99.90;;;;;;5052035;28;20369;-70
2023/04/18 12:04:53;;;;;;;15.55;11.93;;;15.00;99.90;;;;;;5059934;28;20558;-70
2023/04/18 12:07:38;;;;;;;14.88;11.70;;;15.00;99.90;;;;;;5060621;28;20051;-67
2023/04/18 12:10:06;;;;;;;14.85;11.75;;;15.10;99.90;;;;;;5055074;28;20079;-66
2023/04/18 12:12:32;;;;;;;17.45;11.80;;;15.10;99.90;;;;;;5048770;28;20129;-68
2023/04/18 12:15:06;;;;;;;14.85;11.52;;;15.10;99.90;;;;;;5059550;28;20082;-70
2023/04/18 12:17:32;;;;;;;13.90;11.40;;;15.20;99.90;;;;;;5068099;28;20090;-70
2023/04/18 12:20:02;;;;;;;15.60;12.00;;;15.10;99.90;;;;;;5049881;28;20468;-68
2023/04/18 12:22:48;;;;;;;17.23;12.93;;;15.10;99.90;;;;;;5066106;28;20051;-72
2023/04/18 12:25:22;;;;;;;16.10;11.73;;;15.00;99.90;;;;;;5061543;28;20557;-67
2023/04/18 12:27:52;;;;;;;14.38;11.32;;;15.10;99.90;;;;;;5063477;28;20059;-70
2023/04/18 12:30:21;;;;;;;17.00;12.45;;;15.20;99.90;;;;;;5047916;28;20090;-70
2023/04/18 12:33:00;;;;;;;17.10;12.43;;;15.20;99.90;;;;;;5048886;28;20047;-70
2023/04/18 12:35:26;;;;;;;20.10;12.48;;;15.30;99.90;;;;;;5049242;28;20041;-68
2023/04/18 12:37:54;;;;;;;18.23;12.43;;;15.30;99.90;;;;;;5064740;28;20116;-69